Time;durP1;ratioP1;P1;durP2;ratioP2;P2;SDS_P1;SDS_P2;PMS_P1;PMS_P2;Temp;Humidity;BMP_temperature;BMP_pressure;BME280_temperature;BME280_humidity;BME280_pressure;Samples;Min_cycle;Max_cycle;Signal;HPM_P1;HPM_P2
2023/07/17 00:00:22;;;;;;;4.00;1.77;;;;;;;;;;5001163;28;20602;-60
2023/07/17 00:02:51;;;;;;;3.88;2.15;;;;;;;;;;4999851;28;20054;-59
2023/07/17 00:05:20;;;;;;;3.28;1.98;;;;;;;;;;5003086;28;20049;-64
2023/07/17 00:07:49;;;;;;;6.60;2.60;;;;;;;;;;5003050;28;20491;-60
2023/07/17 00:10:18;;;;;;;3.20;1.65;;;;;;;;;;5000657;28;20392;-59
2023/07/17 00:12:46;;;;;;;3.75;2.03;;;;;;;;;;5002174;28;20041;-60
2023/07/17 00:15:15;;;;;;;3.00;1.80;;;;;;;;;;4999305;28;20049;-59
2023/07/17 00:17:43;;;;;;;2.90;1.80;;;;;;;;;;5002156;28;20131;-58
2023/07/17 00:20:12;;;;;;;3.70;1.80;;;;;;;;;;5003513;28;20081;-62
2023/07/17 00:22:41;;;;;;;2.65;1.60;;;;;;;;;;5001681;28;20503;-60
2023/07/17 00:25:11;;;;;;;6.40;1.90;;;;;;;;;;5002264;28;20437;-60
2023/07/17 00:27:39;;;;;;;4.05;1.90;;;;;;;;;;5002502;28;20050;-60
2023/07/17 00:30:08;;;;;;;2.05;1.55;;;;;;;;;;5000428;28;20053;-59
2023/07/17 00:32:37;;;;;;;3.22;1.90;;;;;;;;;;5001822;28;20626;-59
2023/07/17 00:35:05;;;;;;;2.05;1.70;;;;;;;;;;5002684;28;20080;-59
2023/07/17 00:37:34;;;;;;;5.95;1.88;;;;;;;;;;5000934;28;20480;-65
2023/07/17 00:40:04;;;;;;;2.05;1.58;;;;;;;;;;5000943;28;20116;-61
2023/07/17 00:42:33;;;;;;;3.05;1.92;;;;;;;;;;5001381;28;20731;-61
2023/07/17 00:45:02;;;;;;;2.42;1.80;;;;;;;;;;5000069;28;20376;-59
2023/07/17 00:47:30;;;;;;;3.10;1.73;;;;;;;;;;5002847;28;22277;-61
2023/07/17 00:49:59;;;;;;;3.03;1.90;;;;;;;;;;4997962;28;20057;-61
2023/07/17 00:52:29;;;;;;;4.03;1.80;;;;;;;;;;5005081;28;20057;-59
2023/07/17 00:54:57;;;;;;;5.78;2.00;;;;;;;;;;5004613;28;20068;-64
2023/07/17 00:57:26;;;;;;;3.28;1.90;;;;;;;;;;5004046;28;20142;-59
2023/07/17 00:59:56;;;;;;;2.65;1.75;;;;;;;;;;5000051;28;20054;-60
2023/07/17 01:02:25;;;;;;;2.50;1.67;;;;;;;;;;5022933;22;20111;-73
2023/07/17 01:04:54;;;;;;;3.22;2.25;;;;;;;;;;5025944;28;20072;-59
2023/07/17 01:07:22;;;;;;;3.13;1.73;;;;;;;;;;5023624;28;20099;-74
2023/07/17 01:09:51;;;;;;;2.53;1.92;;;;;;;;;;5023671;28;20236;-58
2023/07/17 01:12:20;;;;;;;4.95;1.80;;;;;;;;;;5021175;28;20150;-62
2023/07/17 01:14:48;;;;;;;2.72;1.67;;;;;;;;;;5021239;28;20529;-61
2023/07/17 01:17:18;;;;;;;3.55;1.85;;;;;;;;;;5022670;28;20172;-76
2023/07/17 01:19:46;;;;;;;3.10;1.77;;;;;;;;;;5023698;28;20100;-59
2023/07/17 01:22:18;;;;;;;3.17;1.88;;;;;;;;;;5024513;28;20152;-59
2023/07/17 01:24:48;;;;;;;2.10;1.83;;;;;;;;;;5022683;28;20045;-59
2023/07/17 01:27:16;;;;;;;2.33;1.50;;;;;;;;;;5022616;28;20068;-66
2023/07/17 01:29:45;;;;;;;4.65;1.83;;;;;;;;;;5021029;28;20502;-68
2023/07/17 01:32:13;;;;;;;4.45;1.70;;;;;;;;;;5023860;28;20092;-74
2023/07/17 01:34:42;;;;;;;3.28;1.80;;;;;;;;;;5019639;28;20096;-66
2023/07/17 01:37:10;;;;;;;2.92;1.83;;;;;;;;;;5023279;28;20057;-59
2023/07/17 01:39:39;;;;;;;4.10;2.13;;;;;;;;;;5024451;28;20126;-62
2023/07/17 01:42:09;;;;;;;3.25;1.80;;;;;;;;;;5022504;28;20045;-76
2023/07/17 01:44:37;;;;;;;3.28;1.95;;;;;;;;;;5019663;28;20081;-62
2023/07/17 01:47:06;;;;;;;3.17;2.00;;;;;;;;;;5024350;28;20107;-59
2023/07/17 01:49:34;;;;;;;3.92;1.80;;;;;;;;;;5019996;28;20518;-60
2023/07/17 01:52:03;;;;;;;5.05;2.10;;;;;;;;;;5019518;28;20037;-65
2023/07/17 01:54:31;;;;;;;2.95;1.75;;;;;;;;;;5022516;28;20057;-63
2023/07/17 01:56:59;;;;;;;2.03;1.52;;;;;;;;;;5023326;28;20042;-62
2023/07/17 01:59:30;;;;;;;2.28;1.55;;;;;;;;;;5023137;28;20057;-70
2023/07/17 02:01:58;;;;;;;2.92;2.03;;;;;;;;;;5019814;28;20123;-60
2023/07/17 02:04:26;;;;;;;3.97;1.90;;;;;;;;;;5023257;28;20341;-60
2023/07/17 02:06:55;;;;;;;3.70;1.83;;;;;;;;;;5020328;28;20494;-64
2023/07/17 02:09:24;;;;;;;2.90;2.03;;;;;;;;;;5022478;28;20046;-65
2023/07/17 02:11:52;;;;;;;3.83;1.80;;;;;;;;;;5021009;28;20380;-59
2023/07/17 02:14:20;;;;;;;2.72;1.60;;;;;;;;;;5018984;28;20073;-74
2023/07/17 02:16:50;;;;;;;3.42;1.95;;;;;;;;;;5021930;28;20548;-62
2023/07/17 02:19:19;;;;;;;2.97;1.83;;;;;;;;;;5022250;28;20049;-62
2023/07/17 02:21:47;;;;;;;3.08;1.50;;;;;;;;;;5023444;28;20190;-58
2023/07/17 02:24:15;;;;;;;3.90;2.00;;;;;;;;;;5020848;28;20050;-67
2023/07/17 02:26:44;;;;;;;3.63;1.80;;;;;;;;;;5019628;28;20128;-59
2023/07/17 02:29:12;;;;;;;3.58;1.90;;;;;;;;;;5022617;28;20049;-60
2023/07/17 02:31:41;;;;;;;4.00;1.80;;;;;;;;;;5023422;28;20049;-64
2023/07/17 02:34:10;;;;;;;3.67;1.63;;;;;;;;;;5024161;28;20061;-58
2023/07/17 02:36:39;;;;;;;6.63;1.70;;;;;;;;;;5019951;28;20061;-59
2023/07/17 02:39:08;;;;;;;2.83;1.98;;;;;;;;;;5020346;28;20042;-62
2023/07/17 02:41:36;;;;;;;2.38;1.77;;;;;;;;;;5022577;28;20395;-69
2023/07/17 02:44:04;;;;;;;3.58;2.08;;;;;;;;;;5022692;28;20088;-62
2023/07/17 02:46:33;;;;;;;4.03;2.08;;;;;;;;;;5018845;28;20061;-60
2023/07/17 02:49:01;;;;;;;8.07;2.20;;;;;;;;;;5023019;28;20805;-74
2023/07/17 02:51:31;;;;;;;4.03;2.40;;;;;;;;;;5023793;28;20068;-64
2023/07/17 02:53:59;;;;;;;3.42;2.38;;;;;;;;;;5022550;28;20088;-58
2023/07/17 02:56:30;;;;;;;5.68;2.17;;;;;;;;;;5020466;28;20049;-66
2023/07/17 02:58:58;;;;;;;4.85;2.45;;;;;;;;;;5022314;28;20184;-59
2023/07/17 03:01:27;;;;;;;5.03;2.60;;;;;;;;;;5019261;28;20049;-57
2023/07/17 03:03:56;;;;;;;8.20;2.60;;;;;;;;;;5018732;28;20112;-61
2023/07/17 03:06:24;;;;;;;5.88;2.55;;;;;;;;;;5021783;28;20596;-60
2023/07/17 03:08:54;;;;;;;4.22;2.20;;;;;;;;;;5021974;28;20049;-59
2023/07/17 03:11:22;;;;;;;6.55;2.50;;;;;;;;;;5019810;28;20045;-57
2023/07/17 03:13:51;;;;;;;4.47;2.40;;;;;;;;;;5022410;28;20483;-59
2023/07/17 03:16:19;;;;;;;4.07;2.60;;;;;;;;;;5016496;28;20053;-58
2023/07/17 03:18:47;;;;;;;7.40;2.80;;;;;;;;;;5020410;28;20045;-60
2023/07/17 03:21:16;;;;;;;4.80;2.53;;;;;;;;;;5020644;28;20525;-59
2023/07/17 03:23:45;;;;;;;5.72;2.78;;;;;;;;;;5020745;28;20084;-58
2023/07/17 03:26:14;;;;;;;3.58;2.08;;;;;;;;;;5020663;28;20097;-58
2023/07/17 03:28:43;;;;;;;5.05;2.20;;;;;;;;;;5020449;28;21247;-61
2023/07/17 03:31:11;;;;;;;4.40;2.50;;;;;;;;;;5016211;28;20088;-60
2023/07/17 03:33:41;;;;;;;4.45;2.38;;;;;;;;;;5021029;28;20056;-63
2023/07/17 03:36:09;;;;;;;5.78;2.70;;;;;;;;;;5015662;28;20084;-61
2023/07/17 03:38:38;;;;;;;5.28;2.97;;;;;;;;;;5016544;28;20053;-64
2023/07/17 03:41:06;;;;;;;4.47;2.47;;;;;;;;;;5021013;28;20490;-72
2023/07/17 03:43:36;;;;;;;4.47;2.65;;;;;;;;;;5017854;28;20569;-60
2023/07/17 03:46:04;;;;;;;4.40;2.53;;;;;;;;;;5019145;28;20103;-57
2023/07/17 03:48:33;;;;;;;4.65;2.70;;;;;;;;;;5021071;28;20041;-72
2023/07/17 03:51:01;;;;;;;9.15;2.60;;;;;;;;;;5017335;28;20073;-59
2023/07/17 03:53:30;;;;;;;8.52;2.33;;;;;;;;;;5020841;28;20049;-66
2023/07/17 03:55:59;;;;;;;5.75;2.75;;;;;;;;;;5020526;28;20096;-62
2023/07/17 03:58:27;;;;;;;6.95;2.95;;;;;;;;;;5018249;28;20045;-66
2023/07/17 04:00:57;;;;;;;5.10;2.55;;;;;;;;;;5016859;28;20045;-57
2023/07/17 04:03:25;;;;;;;6.30;2.63;;;;;;;;;;5020951;28;20100;-57
2023/07/17 04:05:54;;;;;;;5.18;2.72;;;;;;;;;;5021225;28;20040;-76
2023/07/17 04:08:22;;;;;;;4.10;2.35;;;;;;;;;;5020895;28;20849;-60
2023/07/17 04:10:51;;;;;;;4.05;2.72;;;;;;;;;;5017999;28;20384;-64
2023/07/17 04:13:19;;;;;;;4.35;2.35;;;;;;;;;;5018165;28;20162;-72
2023/07/17 04:15:48;;;;;;;5.13;2.25;;;;;;;;;;5014362;28;20115;-67
2023/07/17 04:18:18;;;;;;;5.13;2.22;;;;;;;;;;5022633;28;20915;-63
2023/07/17 04:20:46;;;;;;;5.15;2.65;;;;;;;;;;5013732;28;20761;-57
2023/07/17 04:23:15;;;;;;;8.88;2.95;;;;;;;;;;5020660;28;20473;-62
2023/07/17 04:25:44;;;;;;;5.22;2.40;;;;;;;;;;5015518;28;20064;-62
2023/07/17 04:28:12;;;;;;;4.63;2.63;;;;;;;;;;5020821;28;20079;-67
2023/07/17 04:30:41;;;;;;;4.65;2.60;;;;;;;;;;5013481;28;20131;-63
2023/07/17 04:33:09;;;;;;;5.25;3.03;;;;;;;;;;5016035;28;20137;-59
2023/07/17 04:35:39;;;;;;;6.88;3.10;;;;;;;;;;5019469;28;20046;-60
2023/07/17 04:38:08;;;;;;;7.90;3.60;;;;;;;;;;5015041;28;20037;-64
2023/07/17 04:40:36;;;;;;;5.88;2.92;;;;;;;;;;5010080;28;20099;-69
2023/07/17 04:43:05;;;;;;;6.40;2.28;;;;;;;;;;5012602;28;20111;-74
2023/07/17 04:45:34;;;;;;;6.72;3.03;;;;;;;;;;5015293;28;20049;-62
2023/07/17 04:48:03;;;;;;;4.35;2.88;;;;;;;;;;5008263;28;20151;-71
2023/07/17 04:50:31;;;;;;;6.00;3.25;;;;;;;;;;5009123;28;20049;-61
2023/07/17 04:53:01;;;;;;;5.65;3.28;;;;;;;;;;5015657;28;20053;-57
2023/07/17 04:55:29;;;;;;;6.20;2.97;;;;;;;;;;5017890;28;20136;-57
2023/07/17 04:57:58;;;;;;;9.73;3.03;;;;;;;;;;5014277;28;20087;-65
2023/07/17 05:00:26;;;;;;;5.40;2.72;;;;;;;;;;5017431;28;20487;-58
2023/07/17 05:02:54;;;;;;;6.03;2.97;;;;;;;;;;5017136;28;20208;-60
2023/07/17 05:05:23;;;;;;;5.72;2.55;;;;;;;;;;5015584;28;20064;-57
2023/07/17 05:07:51;;;;;;;4.63;2.67;;;;;;;;;;5014850;28;20084;-58
2023/07/17 05:10:21;;;;;;;5.55;2.95;;;;;;;;;;5014737;28;20050;-60
2023/07/17 05:12:50;;;;;;;7.47;2.85;;;;;;;;;;5016358;28;20111;-58
2023/07/17 05:15:18;;;;;;;8.05;3.25;;;;;;;;;;5010646;28;20049;-62
2023/07/17 05:17:46;;;;;;;5.07;3.10;;;;;;;;;;5013252;28;20128;-57
2023/07/17 05:20:15;;;;;;;5.35;3.20;;;;;;;;;;5013580;28;20719;-57
2023/07/17 05:22:43;;;;;;;5.82;3.25;;;;;;;;;;5016704;28;20132;-58
2023/07/17 05:25:12;;;;;;;5.70;3.35;;;;;;;;;;5017981;28;20453;-63
2023/07/17 05:27:42;;;;;;;5.35;2.75;;;;;;;;;;5018577;28;20695;-60
2023/07/17 05:30:10;;;;;;;6.90;3.28;;;;;;;;;;5019072;28;20146;-58
2023/07/17 05:32:39;;;;;;;5.28;3.22;;;;;;;;;;5017105;28;20096;-72
2023/07/17 05:35:08;;;;;;;7.13;3.28;;;;;;;;;;5012059;28;20479;-58
2023/07/17 05:37:36;;;;;;;6.40;3.38;;;;;;;;;;5015469;28;20125;-66
2023/07/17 05:40:05;;;;;;;7.13;2.72;;;;;;;;;;5015476;28;20111;-60
2023/07/17 05:42:33;;;;;;;4.75;3.10;;;;;;;;;;5017559;28;20522;-58
2023/07/17 05:45:04;;;;;;;5.35;3.70;;;;;;;;;;5015347;28;20049;-71
2023/07/17 05:47:32;;;;;;;4.80;3.10;;;;;;;;;;5013144;28;20088;-59
2023/07/17 05:50:01;;;;;;;6.03;3.90;;;;;;;;;;5017349;28;20508;-62
2023/07/17 05:52:29;;;;;;;7.20;3.83;;;;;;;;;;5019979;28;20058;-63
2023/07/17 05:54:58;;;;;;;6.47;3.03;;;;;;;;;;5018040;28;20371;-59
2023/07/17 05:57:29;;;;;;;5.50;3.05;;;;;;;;;;5019762;28;20056;-58
2023/07/17 05:59:57;;;;;;;5.88;3.05;;;;;;;;;;5021802;28;20524;-71
2023/07/17 06:02:27;;;;;;;4.20;2.53;;;;;;;;;;5020247;28;20104;-74
2023/07/17 06:04:55;;;;;;;7.07;2.45;;;;;;;;;;5021605;28;20486;-59
2023/07/17 06:07:24;;;;;;;4.90;2.92;;;;;;;;;;5018893;28;20120;-58
2023/07/17 06:09:52;;;;;;;5.13;2.70;;;;;;;;;;5021325;28;20466;-73
2023/07/17 06:12:21;;;;;;;2.80;2.17;;;;;;;;;;5021029;28;20552;-63
2023/07/17 06:14:49;;;;;;;4.35;2.10;;;;;;;;;;5020009;28;20073;-63
2023/07/17 06:17:18;;;;;;;3.38;2.17;;;;;;;;;;5023332;28;20150;-63
2023/07/17 06:19:47;;;;;;;3.55;1.90;;;;;;;;;;5022439;28;20041;-58
2023/07/17 06:22:16;;;;;;;5.75;2.33;;;;;;;;;;5022186;28;20037;-58
2023/07/17 06:24:44;;;;;;;2.85;1.67;;;;;;;;;;5023963;28;20042;-66
2023/07/17 06:27:13;;;;;;;5.47;2.47;;;;;;;;;;5020663;28;20441;-70
2023/07/17 06:29:41;;;;;;;4.03;1.83;;;;;;;;;;5021253;28;20554;-59
2023/07/17 06:32:10;;;;;;;3.72;2.08;;;;;;;;;;5021434;28;20498;-59
2023/07/17 06:34:41;;;;;;;3.33;1.98;;;;;;;;;;5021729;28;20049;-59
2023/07/17 06:37:12;;;;;;;5.55;1.83;;;;;;;;;;5019360;28;20513;-62
2023/07/17 06:39:41;;;;;;;3.80;2.10;;;;;;;;;;5022123;28;20383;-63
2023/07/17 06:42:10;;;;;;;4.10;2.22;;;;;;;;;;5020344;28;20548;-61
2023/07/17 06:44:38;;;;;;;4.88;1.67;;;;;;;;;;5021189;28;20088;-58
2023/07/17 06:47:07;;;;;;;4.47;2.03;;;;;;;;;;5018456;28;20136;-60
2023/07/17 06:49:53;;;;;;;3.22;1.85;;;;;;;;;;5022505;28;20049;-64
2023/07/17 06:52:23;;;;;;;2.50;1.50;;;;;;;;;;5020300;28;20387;-64
2023/07/17 06:54:51;;;;;;;6.78;1.80;;;;;;;;;;5019250;28;20103;-60
2023/07/17 06:57:24;;;;;;;4.60;2.20;;;;;;;;;;5021134;28;20124;-61
2023/07/17 06:59:52;;;;;;;5.80;2.25;;;;;;;;;;5020910;28;20041;-58
2023/07/17 07:02:21;;;;;;;5.72;2.00;;;;;;;;;;5016943;28;20085;-69
2023/07/17 07:04:49;;;;;;;2.75;1.80;;;;;;;;;;5019163;28;20510;-60
2023/07/17 07:07:17;;;;;;;3.63;1.88;;;;;;;;;;5022226;28;20049;-62
2023/07/17 07:09:48;;;;;;;4.57;1.80;;;;;;;;;;5022865;28;20041;-58
2023/07/17 07:12:17;;;;;;;5.00;1.38;;;;;;;;;;5020259;28;20045;-63
2023/07/17 07:14:45;;;;;;;4.57;2.47;;;;;;;;;;5018393;28;20502;-61
2023/07/17 07:17:14;;;;;;;3.17;1.70;;;;;;;;;;5019095;28;20057;-59
2023/07/17 07:19:43;;;;;;;4.40;1.88;;;;;;;;;;5019790;28;20050;-59
2023/07/17 07:22:12;;;;;;;4.25;2.08;;;;;;;;;;5013552;28;20406;-60
2023/07/17 07:24:42;;;;;;;4.10;2.03;;;;;;;;;;5019120;28;20050;-61
2023/07/17 07:27:12;;;;;;;4.72;1.92;;;;;;;;;;5019516;28;20172;-64
2023/07/17 07:29:40;;;;;;;2.55;1.50;;;;;;;;;;5017453;28;20606;-59
2023/07/17 07:32:09;;;;;;;3.10;1.85;;;;;;;;;;5019905;28;20049;-60
2023/07/17 07:34:39;;;;;;;6.82;2.03;;;;;;;;;;5018905;28;20088;-63
2023/07/17 07:37:07;;;;;;;3.83;2.22;;;;;;;;;;5016961;28;20045;-72
2023/07/17 07:39:36;;;;;;;4.85;2.42;;;;;;;;;;5017600;28;20132;-59
2023/07/17 07:42:04;;;;;;;4.65;2.38;;;;;;;;;;5016374;28;20483;-59
2023/07/17 07:44:34;;;;;;;3.30;2.00;;;;;;;;;;5015937;28;20107;-59
2023/07/17 07:47:05;;;;;;;4.38;2.38;;;;;;;;;;5017205;28;20053;-58
2023/07/17 07:49:33;;;;;;;4.25;1.80;;;;;;;;;;5019976;28;20294;-63
2023/07/17 07:52:01;;;;;;;4.03;2.20;;;;;;;;;;5018391;28;20179;-62
2023/07/17 07:54:30;;;;;;;2.72;1.90;;;;;;;;;;5015646;28;20083;-70
2023/07/17 07:56:58;;;;;;;5.97;2.28;;;;;;;;;;5019966;28;20041;-59
2023/07/17 07:59:27;;;;;;;6.97;2.35;;;;;;;;;;5016084;28;20053;-57
2023/07/17 08:01:56;;;;;;;4.32;2.00;;;;;;;;;;5013696;28;20119;-58
2023/07/17 08:04:25;;;;;;;4.70;2.22;;;;;;;;;;5018474;28;20124;-60
2023/07/17 08:06:53;;;;;;;7.50;2.13;;;;;;;;;;5018301;28;20071;-61
2023/07/17 08:09:22;;;;;;;7.57;2.30;;;;;;;;;;5019807;28;20414;-59
2023/07/17 08:11:50;;;;;;;4.13;2.15;;;;;;;;;;5019991;28;20450;-58
2023/07/17 08:14:20;;;;;;;7.20;2.33;;;;;;;;;;5019273;28;20041;-58
2023/07/17 08:16:49;;;;;;;4.45;2.15;;;;;;;;;;5015697;28;20049;-61
2023/07/17 08:19:19;;;;;;;5.88;1.77;;;;;;;;;;5020956;28;20099;-60
2023/07/17 08:21:48;;;;;;;5.03;2.20;;;;;;;;;;5021155;28;20079;-58
2023/07/17 08:24:16;;;;;;;4.45;1.70;;;;;;;;;;5018348;28;20490;-60
2023/07/17 08:26:44;;;;;;;5.15;2.20;;;;;;;;;;5014001;28;20049;-70
2023/07/17 08:29:13;;;;;;;6.82;2.22;;;;;;;;;;5016538;28;20072;-76
2023/07/17 08:31:42;;;;;;;3.75;1.67;;;;;;;;;;5017846;28;20135;-65
2023/07/17 08:34:10;;;;;;;3.17;1.92;;;;;;;;;;5019982;28;20042;-59
2023/07/17 08:36:40;;;;;;;3.50;2.10;;;;;;;;;;5018570;28;20150;-62
2023/07/17 08:39:09;;;;;;;4.05;2.00;;;;;;;;;;5019182;28;20100;-59
2023/07/17 08:41:39;;;;;;;3.35;1.67;;;;;;;;;;5019438;28;20103;-72
2023/07/17 08:44:07;;;;;;;4.07;2.00;;;;;;;;;;5019100;28;20418;-60
2023/07/17 08:46:36;;;;;;;3.17;1.90;;;;;;;;;;5019234;28;20119;-59
2023/07/17 08:49:06;;;;;;;3.97;1.92;;;;;;;;;;5018263;28;20901;-72
2023/07/17 08:51:34;;;;;;;2.88;2.22;;;;;;;;;;5014754;28;20481;-59
2023/07/17 08:54:04;;;;;;;2.38;1.58;;;;;;;;;;5018215;28;20041;-62
2023/07/17 08:56:52;;;;;;;6.05;2.22;;;;;;;;;;5017836;28;20057;-63
2023/07/17 08:59:21;;;;;;;5.28;1.80;;;;;;;;;;5018200;28;20451;-60
2023/07/17 09:01:50;;;;;;;3.83;1.95;;;;;;;;;;5018472;28;20077;-76
2023/07/17 09:04:19;;;;;;;6.40;1.80;;;;;;;;;;5021280;28;20037;-60
2023/07/17 09:06:47;;;;;;;3.10;1.98;;;;;;;;;;5017627;28;20048;-60
2023/07/17 09:09:19;;;;;;;4.95;2.30;;;;;;;;;;5017695;28;20104;-78
2023/07/17 09:11:47;;;;;;;6.68;2.47;;;;;;;;;;5018689;28;20042;-69
2023/07/17 09:14:15;;;;;;;4.22;2.20;;;;;;;;;;5017278;28;20502;-74
2023/07/17 09:16:46;;;;;;;7.13;2.10;;;;;;;;;;5017274;28;20087;-69
2023/07/17 09:19:15;;;;;;;5.78;1.92;;;;;;;;;;5019062;28;20099;-62
2023/07/17 09:21:43;;;;;;;4.68;2.10;;;;;;;;;;5017113;28;20115;-67
2023/07/17 09:24:12;;;;;;;7.03;2.42;;;;;;;;;;5016196;28;20468;-59
2023/07/17 09:26:42;;;;;;;4.53;2.40;;;;;;;;;;5017092;28;20069;-66
2023/07/17 09:29:10;;;;;;;6.00;2.10;;;;;;;;;;5018738;28;20072;-61
2023/07/17 09:31:39;;;;;;;4.55;1.88;;;;;;;;;;5023996;28;20132;-60
2023/07/17 09:34:13;;;;;;;5.00;2.33;;;;;;;;;;5025210;28;20091;-60
2023/07/17 09:36:41;;;;;;;5.57;2.60;;;;;;;;;;5022311;28;20107;-58
2023/07/17 09:39:11;;;;;;;3.58;2.10;;;;;;;;;;5019629;28;20085;-59
2023/07/17 09:41:39;;;;;;;3.45;2.40;;;;;;;;;;5019593;28;20049;-59
2023/07/17 09:44:10;;;;;;;7.28;2.35;;;;;;;;;;5020307;28;20044;-58
2023/07/17 09:46:39;;;;;;;3.08;2.08;;;;;;;;;;5019186;28;20046;-61
2023/07/17 09:49:08;;;;;;;3.58;2.05;;;;;;;;;;5021308;28;20050;-58
2023/07/17 09:51:37;;;;;;;5.30;2.38;;;;;;;;;;5019033;28;20057;-59
2023/07/17 09:54:06;;;;;;;6.78;2.47;;;;;;;;;;5017136;28;20406;-66
2023/07/17 09:56:34;;;;;;;6.75;2.42;;;;;;;;;;5023046;28;20095;-76
2023/07/17 09:59:16;;;;;;;4.72;2.03;;;;;;;;;;5017292;28;20596;-70
2023/07/17 10:01:47;;;;;;;4.13;2.03;;;;;;;;;;5015828;28;20171;-69
2023/07/17 10:04:18;;;;;;;4.10;2.08;;;;;;;;;;5014104;28;20355;-67
2023/07/17 10:06:48;;;;;;;3.53;2.33;;;;;;;;;;5014690;28;20073;-59
2023/07/17 10:09:20;;;;;;;4.28;1.88;;;;;;;;;;5020154;28;20449;-65
2023/07/17 10:11:49;;;;;;;6.85;2.63;;;;;;;;;;5020258;28;20353;-60
2023/07/17 10:14:17;;;;;;;5.63;2.22;;;;;;;;;;5019254;28;20073;-66
2023/07/17 10:16:47;;;;;;;4.68;2.33;;;;;;;;;;5021542;28;20441;-74
2023/07/17 10:19:16;;;;;;;4.65;2.40;;;;;;;;;;5022711;28;20269;-59
2023/07/17 10:21:54;;;;;;;3.58;1.75;;;;;;;;;;5020401;28;20056;-67
2023/07/17 10:24:23;;;;;;;7.28;2.05;;;;;;;;;;5020680;28;20068;-58
2023/07/17 10:26:52;;;;;;;5.75;2.20;;;;;;;;;;5019333;28;20092;-68
2023/07/17 10:29:31;;;;;;;3.22;2.10;;;;;;;;;;5018168;28;20045;-63
2023/07/17 10:32:09;;;;;;;5.28;2.42;;;;;;;;;;5019979;28;20061;-58
2023/07/17 10:34:55;;;;;;;6.28;2.00;;;;;;;;;;5020503;28;20126;-65
2023/07/17 10:37:42;;;;;;;5.10;2.15;;;;;;;;;;5021275;28;20241;-59
2023/07/17 10:40:26;;;;;;;4.85;1.65;;;;;;;;;;5018745;28;20104;-72
2023/07/17 10:42:55;;;;;;;4.25;1.83;;;;;;;;;;5021014;28;20146;-60
2023/07/17 10:45:35;;;;;;;3.35;2.03;;;;;;;;;;5022687;28;20042;-75
2023/07/17 10:48:05;;;;;;;5.15;2.00;;;;;;;;;;5021595;28;20137;-62
2023/07/17 10:50:34;;;;;;;7.65;2.70;;;;;;;;;;5019398;28;20046;-63
2023/07/17 10:53:03;;;;;;;4.03;2.20;;;;;;;;;;5021100;28;20494;-70
2023/07/17 10:55:32;;;;;;;3.70;2.38;;;;;;;;;;5021964;28;20418;-59
2023/07/17 10:58:02;;;;;;;4.05;2.22;;;;;;;;;;5019553;28;20092;-62
2023/07/17 11:00:32;;;;;;;3.95;2.17;;;;;;;;;;5018919;28;20053;-66
2023/07/17 11:03:03;;;;;;;4.38;2.30;;;;;;;;;;5021304;28;20133;-60
2023/07/17 11:05:37;;;;;;;4.63;2.03;;;;;;;;;;5019896;28;20041;-64
2023/07/17 11:08:06;;;;;;;5.47;2.35;;;;;;;;;;5021874;28;20123;-59
2023/07/17 11:10:34;;;;;;;9.18;2.10;;;;;;;;;;5022552;28;20052;-62
2023/07/17 11:13:03;;;;;;;3.63;2.35;;;;;;;;;;5021152;28;20798;-60
2023/07/17 11:15:33;;;;;;;5.32;2.45;;;;;;;;;;5018884;28;20055;-61
2023/07/17 11:18:01;;;;;;;4.95;2.05;;;;;;;;;;5022053;28;20292;-63
2023/07/17 11:20:30;;;;;;;4.22;2.30;;;;;;;;;;5021744;28;20104;-62
2023/07/17 11:23:00;;;;;;;5.90;2.20;;;;;;;;;;5020481;28;20053;-64
2023/07/17 11:25:29;;;;;;;6.93;2.20;;;;;;;;;;5020775;28;20127;-59
2023/07/17 11:27:58;;;;;;;5.10;2.30;;;;;;;;;;5020426;28;20104;-61
2023/07/17 11:30:27;;;;;;;4.22;2.33;;;;;;;;;;5022909;28;20071;-59
2023/07/17 11:33:02;;;;;;;4.30;2.10;;;;;;;;;;5021811;28;20407;-69
2023/07/17 11:35:40;;;;;;;3.25;1.75;;;;;;;;;;5021522;28;20079;-73
2023/07/17 11:38:11;;;;;;;4.63;2.40;;;;;;;;;;5022063;28;20530;-74
2023/07/17 11:41:01;;;;;;;4.63;2.53;;;;;;;;;;5024546;28;20107;-59
2023/07/17 11:43:32;;;;;;;3.85;2.25;;;;;;;;;;5015484;28;20410;-59
2023/07/17 11:46:02;;;;;;;5.10;2.40;;;;;;;;;;5020868;28;20483;-61
2023/07/17 11:48:32;;;;;;;3.50;2.28;;;;;;;;;;5021875;28;20048;-63
2023/07/17 11:51:02;;;;;;;4.32;2.53;;;;;;;;;;5018658;28;20073;-67
2023/07/17 11:53:33;;;;;;;4.80;2.30;;;;;;;;;;5018572;28;20697;-58
2023/07/17 11:56:02;;;;;;;5.32;2.47;;;;;;;;;;5021813;28;20050;-65
2023/07/17 11:58:34;;;;;;;4.63;2.30;;;;;;;;;;5019674;28;20049;-61
2023/07/17 12:01:06;;;;;;;5.47;2.30;;;;;;;;;;5017977;28;20134;-65
2023/07/17 12:03:35;;;;;;;11.77;2.30;;;;;;;;;;5020580;28;20077;-61
2023/07/17 12:06:03;;;;;;;4.00;2.03;;;;;;;;;;5018888;28;20057;-65
2023/07/17 12:08:33;;;;;;;4.53;1.98;;;;;;;;;;5022776;28;20041;-59
2023/07/17 12:11:01;;;;;;;4.57;2.63;;;;;;;;;;5020337;28;21859;-62
2023/07/17 12:13:30;;;;;;;5.78;2.67;;;;;;;;;;5019349;28;20057;-64
2023/07/17 12:15:58;;;;;;;4.80;2.25;;;;;;;;;;5016808;28;20049;-62
2023/07/17 12:18:27;;;;;;;3.25;1.83;;;;;;;;;;5020164;28;20049;-60
2023/07/17 12:20:55;;;;;;;3.28;2.03;;;;;;;;;;5019708;28;20073;-59
2023/07/17 12:23:23;;;;;;;3.60;2.15;;;;;;;;;;5018367;28;20486;-59
2023/07/17 12:25:53;;;;;;;3.00;2.20;;;;;;;;;;5017873;28;20466;-59
2023/07/17 12:28:22;;;;;;;4.15;2.25;;;;;;;;;;5018376;28;20593;-76
2023/07/17 12:30:50;;;;;;;5.68;2.30;;;;;;;;;;5017651;28;20479;-65
2023/07/17 12:33:19;;;;;;;4.03;2.15;;;;;;;;;;5016078;28;20471;-59
2023/07/17 12:35:47;;;;;;;5.38;2.90;;;;;;;;;;5018689;28;20403;-63
2023/07/17 12:38:18;;;;;;;5.85;2.70;;;;;;;;;;5018034;28;20076;-60
2023/07/17 12:40:46;;;;;;;4.47;2.38;;;;;;;;;;5017249;28;20110;-63
2023/07/17 12:43:16;;;;;;;3.92;2.50;;;;;;;;;;5017749;28;20506;-58
2023/07/17 12:45:44;;;;;;;2.63;2.10;;;;;;;;;;5017023;28;20053;-65
2023/07/17 12:48:13;;;;;;;6.00;2.15;;;;;;;;;;5016779;28;20056;-61
2023/07/17 12:50:41;;;;;;;3.35;2.10;;;;;;;;;;5018120;28;20056;-61
2023/07/17 12:53:10;;;;;;;3.88;2.30;;;;;;;;;;5016367;28;20288;-61
2023/07/17 12:55:39;;;;;;;3.38;2.20;;;;;;;;;;5015603;28;20625;-73
2023/07/17 12:58:08;;;;;;;4.20;2.67;;;;;;;;;;5018494;28;20829;-61
2023/07/17 13:00:38;;;;;;;2.85;1.98;;;;;;;;;;5016028;28;20638;-65
2023/07/17 13:03:06;;;;;;;5.25;2.28;;;;;;;;;;5017757;28;20379;-65
2023/07/17 13:05:35;;;;;;;3.38;2.05;;;;;;;;;;5019085;28;20442;-70
2023/07/17 13:08:03;;;;;;;5.55;2.58;;;;;;;;;;5020488;28;20093;-57
2023/07/17 13:10:31;;;;;;;3.33;2.08;;;;;;;;;;5017318;28;20068;-57
2023/07/17 13:13:00;;;;;;;5.18;2.13;;;;;;;;;;5019609;28;20103;-59
2023/07/17 13:15:28;;;;;;;3.05;2.10;;;;;;;;;;5019674;28;20046;-74
2023/07/17 13:17:58;;;;;;;4.13;2.33;;;;;;;;;;5019728;28;20099;-69
2023/07/17 13:20:26;;;;;;;3.20;2.08;;;;;;;;;;5021866;28;20506;-57
2023/07/17 13:22:55;;;;;;;4.93;2.50;;;;;;;;;;5018120;28;20058;-61
2023/07/17 13:25:23;;;;;;;5.10;2.90;;;;;;;;;;5017540;28;20049;-59
2023/07/17 13:27:52;;;;;;;4.38;2.25;;;;;;;;;;5021151;28;20054;-64
2023/07/17 13:30:20;;;;;;;4.18;2.30;;;;;;;;;;5023731;28;20077;-58
2023/07/17 13:32:49;;;;;;;5.53;2.22;;;;;;;;;;5022532;28;20411;-57
2023/07/17 13:35:19;;;;;;;3.92;2.42;;;;;;;;;;5023660;28;20049;-64
2023/07/17 13:37:47;;;;;;;5.45;2.42;;;;;;;;;;5023113;28;20443;-59
2023/07/17 13:40:15;;;;;;;3.80;2.50;;;;;;;;;;5022208;28;20049;-75
2023/07/17 13:42:44;;;;;;;3.47;2.40;;;;;;;;;;5022317;28;20061;-59
2023/07/17 13:45:12;;;;;;;3.75;2.42;;;;;;;;;;5022249;28;20131;-57
2023/07/17 13:47:41;;;;;;;6.05;2.50;;;;;;;;;;5022939;28;20107;-62
2023/07/17 13:50:09;;;;;;;5.82;2.22;;;;;;;;;;5021668;28;20077;-61
2023/07/17 13:52:39;;;;;;;5.20;2.20;;;;;;;;;;5024462;28;20607;-70
2023/07/17 13:55:08;;;;;;;4.13;2.60;;;;;;;;;;5023626;28;20519;-60
2023/07/17 13:57:37;;;;;;;5.18;2.33;;;;;;;;;;5024021;28;20095;-58
2023/07/17 14:00:06;;;;;;;5.13;2.25;;;;;;;;;;5019578;28;20418;-58
2023/07/17 14:02:34;;;;;;;2.83;2.25;;;;;;;;;;5023591;28;20046;-59
2023/07/17 14:05:02;;;;;;;3.38;2.05;;;;;;;;;;5021086;28;20514;-62
2023/07/17 14:07:32;;;;;;;5.43;2.35;;;;;;;;;;5023504;28;20553;-65
2023/07/17 14:10:02;;;;;;;3.75;2.15;;;;;;;;;;5023933;28;20041;-58
2023/07/17 14:12:30;;;;;;;3.17;2.40;;;;;;;;;;5021540;28;20037;-59
2023/07/17 14:14:59;;;;;;;6.22;2.55;;;;;;;;;;5020377;28;20422;-72
2023/07/17 14:17:27;;;;;;;4.35;2.10;;;;;;;;;;5022060;28;20069;-67
2023/07/17 14:19:57;;;;;;;5.10;2.20;;;;;;;;;;5020829;28;20172;-58
2023/07/17 14:22:26;;;;;;;5.55;2.60;;;;;;;;;;5023291;28;20073;-59
2023/07/17 14:24:55;;;;;;;4.20;2.13;;;;;;;;;;5023114;28;20549;-62
2023/07/17 14:27:24;;;;;;;3.45;2.15;;;;;;;;;;5022341;28;20224;-63
2023/07/17 14:29:53;;;;;;;4.32;1.98;;;;;;;;;;5020955;28;20042;-60
2023/07/17 14:32:21;;;;;;;2.90;1.90;;;;;;;;;;5020633;28;20100;-60
2023/07/17 14:34:50;;;;;;;4.13;2.20;;;;;;;;;;5021295;28;20049;-64
2023/07/17 14:37:18;;;;;;;3.95;2.53;;;;;;;;;;5018444;28;20546;-61
2023/07/17 14:39:47;;;;;;;5.60;2.33;;;;;;;;;;5019753;28;20042;-59
2023/07/17 14:42:15;;;;;;;3.63;2.00;;;;;;;;;;5013819;28;20048;-61
2023/07/17 14:44:46;;;;;;;5.65;2.55;;;;;;;;;;5016958;28;20652;-58
2023/07/17 14:47:15;;;;;;;4.47;2.28;;;;;;;;;;5022179;28;20184;-58
2023/07/17 14:49:43;;;;;;;3.03;1.98;;;;;;;;;;5017476;28;20457;-64
2023/07/17 14:52:12;;;;;;;5.97;2.13;;;;;;;;;;5022729;28;20387;-59
2023/07/17 14:54:40;;;;;;;5.13;2.53;;;;;;;;;;5018374;28;20053;-59